sensor_id;sensor_type;location;lat;lon;timestamp;temperature;humidity
44229;DHT22;29904;51.058;5.378;2023-04-01T00:00:33;10.00;99.90
44229;DHT22;29904;51.058;5.378;2023-04-01T00:03:00;9.90;99.90
44229;DHT22;29904;51.058;5.378;2023-04-01T00:05:28;9.90;99.90
44229;DHT22;29904;51.058;5.378;2023-04-01T00:07:53;10.00;99.90
44229;DHT22;29904;51.058;5.378;2023-04-01T00:10:21;10.00;99.90
44229;DHT22;29904;51.058;5.378;2023-04-01T00:12:47;10.00;99.90
44229;DHT22;29904;51.058;5.378;2023-04-01T00:15:13;9.90;99.90
44229;DHT22;29904;51.058;5.378;2023-04-01T00:17:38;9.90;99.90
44229;DHT22;29904;51.058;5.378;2023-04-01T00:20:05;9.90;99.90
44229;DHT22;29904;51.058;5.378;2023-04-01T00:22:32;9.90;99.90
44229;DHT22;29904;51.058;5.378;2023-04-01T00:24:59;9.90;99.90
44229;DHT22;29904;51.058;5.378;2023-04-01T00:27:25;9.90;99.90
44229;DHT22;29904;51.058;5.378;2023-04-01T00:29:51;9.90;99.90
44229;DHT22;29904;51.058;5.378;2023-04-01T00:32:17;9.90;99.90
44229;DHT22;29904;51.058;5.378;2023-04-01T00:34:43;9.90;99.90
44229;DHT22;29904;51.058;5.378;2023-04-01T00:37:10;9.90;99.90
44229;DHT22;29904;51.058;5.378;2023-04-01T00:39:38;9.50;99.90
44229;DHT22;29904;51.058;5.378;2023-04-01T00:42:09;10.00;99.90
44229;DHT22;29904;51.058;5.378;2023-04-01T00:44:36;9.90;99.90
44229;DHT22;29904;51.058;5.378;2023-04-01T00:47:02;9.90;99.90
44229;DHT22;29904;51.058;5.378;2023-04-01T00:49:34;9.90;99.90
44229;DHT22;29904;51.058;5.378;2023-04-01T00:52:04;9.90;99.90
44229;DHT22;29904;51.058;5.378;2023-04-01T00:54:32;9.90;99.90
44229;DHT22;29904;51.058;5.378;2023-04-01T00:57:23;9.90;99.90
44229;DHT22;29904;51.058;5.378;2023-04-01T00:59:54;9.90;99.90
44229;DHT22;29904;51.058;5.378;2023-04-01T01:02:20;9.90;99.90
44229;DHT22;29904;51.058;5.378;2023-04-01T01:04:46;9.90;99.90
44229;DHT22;29904;51.058;5.378;2023-04-01T01:13:05;9.90;99.90
44229;DHT22;29904;51.058;5.378;2023-04-01T01:24:28;9.90;99.90
44229;DHT22;29904;51.058;5.378;2023-04-01T01:27:18;9.90;99.90
44229;DHT22;29904;51.058;5.378;2023-04-01T01:38:22;9.80;99.90
44229;DHT22;29904;51.058;5.378;2023-04-01T01:40:50;9.80;99.90
44229;DHT22;29904;51.058;5.378;2023-04-01T01:43:22;9.90;99.90
44229;DHT22;29904;51.058;5.378;2023-04-01T01:45:53;10.00;99.90
44229;DHT22;29904;51.058;5.378;2023-04-01T01:48:20;9.90;99.90
44229;DHT22;29904;51.058;5.378;2023-04-01T01:50:47;9.90;99.90
44229;DHT22;29904;51.058;5.378;2023-04-01T01:53:14;9.90;99.90
44229;DHT22;29904;51.058;5.378;2023-04-01T01:55:43;9.90;99.90
44229;DHT22;29904;51.058;5.378;2023-04-01T02:00:45;10.00;99.90
44229;DHT22;29904;51.058;5.378;2023-04-01T02:03:13;10.00;99.90
44229;DHT22;29904;51.058;5.378;2023-04-01T02:05:40;9.90;99.90
44229;DHT22;29904;51.058;5.378;2023-04-01T02:08:15;9.90;99.90
44229;DHT22;29904;51.058;5.378;2023-04-01T02:10:55;9.90;99.90
44229;DHT22;29904;51.058;5.378;2023-04-01T02:13:31;10.00;99.90
44229;DHT22;29904;51.058;5.378;2023-04-01T02:16:02;9.90;99.90
44229;DHT22;29904;51.058;5.378;2023-04-01T02:18:30;10.00;99.90
44229;DHT22;29904;51.058;5.378;2023-04-01T02:20:59;9.90;99.90
44229;DHT22;29904;51.058;5.378;2023-04-01T02:23:26;9.90;99.90
44229;DHT22;29904;51.058;5.378;2023-04-01T02:25:53;9.90;99.90
44229;DHT22;29904;51.058;5.378;2023-04-01T02:28:20;9.90;99.90
44229;DHT22;29904;51.058;5.378;2023-04-01T02:30:47;9.90;99.90
44229;DHT22;29904;51.058;5.378;2023-04-01T02:33:15;9.90;99.90
44229;DHT22;29904;51.058;5.378;2023-04-01T02:35:41;9.90;99.90
44229;DHT22;29904;51.058;5.378;2023-04-01T02:38:07;9.90;99.90
44229;DHT22;29904;51.058;5.378;2023-04-01T02:40:48;9.90;99.90
44229;DHT22;29904;51.058;5.378;2023-04-01T02:43:15;9.90;99.90
44229;DHT22;29904;51.058;5.378;2023-04-01T02:45:42;9.90;99.90
44229;DHT22;29904;51.058;5.378;2023-04-01T02:48:08;9.90;99.90
44229;DHT22;29904;51.058;5.378;2023-04-01T02:50:34;9.80;99.90
44229;DHT22;29904;51.058;5.378;2023-04-01T02:53:00;9.90;99.90
44229;DHT22;29904;51.058;5.378;2023-04-01T02:55:29;9.90;99.90
44229;DHT22;29904;51.058;5.378;2023-04-01T02:57:56;9.90;99.90
44229;DHT22;29904;51.058;5.378;2023-04-01T03:00:21;9.90;99.90
44229;DHT22;29904;51.058;5.378;2023-04-01T03:02:47;9.90;99.90
44229;DHT22;29904;51.058;5.378;2023-04-01T03:05:13;9.90;99.90
44229;DHT22;29904;51.058;5.378;2023-04-01T03:07:39;9.80;99.90
44229;DHT22;29904;51.058;5.378;2023-04-01T03:10:07;9.90;99.90
44229;DHT22;29904;51.058;5.378;2023-04-01T03:12:33;9.90;99.90
44229;DHT22;29904;51.058;5.378;2023-04-01T03:14:59;9.90;99.90
44229;DHT22;29904;51.058;5.378;2023-04-01T03:17:27;9.90;99.90
44229;DHT22;29904;51.058;5.378;2023-04-01T03:19:52;9.90;99.90
44229;DHT22;29904;51.058;5.378;2023-04-01T03:22:18;9.90;99.90
44229;DHT22;29904;51.058;5.378;2023-04-01T03:24:48;9.80;99.90
44229;DHT22;29904;51.058;5.378;2023-04-01T03:27:14;9.80;99.90
44229;DHT22;29904;51.058;5.378;2023-04-01T03:29:40;9.80;99.90
44229;DHT22;29904;51.058;5.378;2023-04-01T03:32:10;9.80;99.90
44229;DHT22;29904;51.058;5.378;2023-04-01T03:34:35;9.80;99.90
44229;DHT22;29904;51.058;5.378;2023-04-01T03:37:01;9.80;99.90
44229;DHT22;29904;51.058;5.378;2023-04-01T03:39:27;9.70;99.90
44229;DHT22;29904;51.058;5.378;2023-04-01T03:41:53;9.70;99.90
44229;DHT22;29904;51.058;5.378;2023-04-01T03:44:19;9.70;99.90
44229;DHT22;29904;51.058;5.378;2023-04-01T03:46:44;9.60;99.90
44229;DHT22;29904;51.058;5.378;2023-04-01T03:49:11;9.60;99.90
44229;DHT22;29904;51.058;5.378;2023-04-01T03:51:43;9.60;99.90
44229;DHT22;29904;51.058;5.378;2023-04-01T03:54:11;9.60;99.90
44229;DHT22;29904;51.058;5.378;2023-04-01T03:56:37;9.60;99.90
44229;DHT22;29904;51.058;5.378;2023-04-01T03:59:06;9.70;99.90
44229;DHT22;29904;51.058;5.378;2023-04-01T04:01:32;9.60;99.90
44229;DHT22;29904;51.058;5.378;2023-04-01T04:03:58;9.60;99.90
44229;DHT22;29904;51.058;5.378;2023-04-01T04:06:25;9.60;99.90
44229;DHT22;29904;51.058;5.378;2023-04-01T04:08:53;9.60;99.90
44229;DHT22;29904;51.058;5.378;2023-04-01T04:11:21;9.60;99.90
44229;DHT22;29904;51.058;5.378;2023-04-01T04:13:47;9.60;99.90
44229;DHT22;29904;51.058;5.378;2023-04-01T04:16:14;9.60;99.90
44229;DHT22;29904;51.058;5.378;2023-04-01T04:18:40;9.60;99.90
44229;DHT22;29904;51.058;5.378;2023-04-01T04:21:06;9.60;99.90
44229;DHT22;29904;51.058;5.378;2023-04-01T04:23:32;9.60;99.90
44229;DHT22;29904;51.058;5.378;2023-04-01T04:26:07;9.60;99.90
44229;DHT22;29904;51.058;5.378;2023-04-01T04:28:34;9.60;99.90
44229;DHT22;29904;51.058;5.378;2023-04-01T04:31:00;9.60;99.90
44229;DHT22;29904;51.058;5.378;2023-04-01T04:33:28;9.60;99.90
44229;DHT22;29904;51.058;5.378;2023-04-01T04:35:59;9.60;99.90
44229;DHT22;29904;51.058;5.378;2023-04-01T04:38:26;9.60;99.90
44229;DHT22;29904;51.058;5.378;2023-04-01T04:40:52;9.70;99.90
44229;DHT22;29904;51.058;5.378;2023-04-01T04:43:18;9.70;99.90
44229;DHT22;29904;51.058;5.378;2023-04-01T04:45:44;9.70;99.90
44229;DHT22;29904;51.058;5.378;2023-04-01T04:48:11;9.60;99.90
44229;DHT22;29904;51.058;5.378;2023-04-01T04:50:44;9.60;99.90
44229;DHT22;29904;51.058;5.378;2023-04-01T04:53:11;9.60;99.90
44229;DHT22;29904;51.058;5.378;2023-04-01T04:55:37;9.60;99.90
44229;DHT22;29904;51.058;5.378;2023-04-01T04:58:04;9.60;99.90
44229;DHT22;29904;51.058;5.378;2023-04-01T05:00:32;9.60;99.90
44229;DHT22;29904;51.058;5.378;2023-04-01T05:02:58;9.60;99.90
44229;DHT22;29904;51.058;5.378;2023-04-01T05:05:25;9.60;99.90
44229;DHT22;29904;51.058;5.378;2023-04-01T05:07:51;9.60;99.90
44229;DHT22;29904;51.058;5.378;2023-04-01T05:10:17;9.60;99.90
44229;DHT22;29904;51.058;5.378;2023-04-01T05:12:44;9.70;99.90
44229;DHT22;29904;51.058;5.378;2023-04-01T05:15:10;9.60;99.90
44229;DHT22;29904;51.058;5.378;2023-04-01T05:17:36;9.60;99.90
44229;DHT22;29904;51.058;5.378;2023-04-01T05:20:02;9.60;99.90
44229;DHT22;29904;51.058;5.378;2023-04-01T05:22:28;9.60;99.90
44229;DHT22;29904;51.058;5.378;2023-04-01T05:24:54;9.60;99.90
44229;DHT22;29904;51.058;5.378;2023-04-01T05:27:21;9.60;99.90
44229;DHT22;29904;51.058;5.378;2023-04-01T05:29:46;9.60;99.90
44229;DHT22;29904;51.058;5.378;2023-04-01T05:32:12;9.50;99.90
44229;DHT22;29904;51.058;5.378;2023-04-01T05:34:40;9.60;99.90
44229;DHT22;29904;51.058;5.378;2023-04-01T05:37:05;9.60;99.90
44229;DHT22;29904;51.058;5.378;2023-04-01T05:39:36;9.60;99.90
44229;DHT22;29904;51.058;5.378;2023-04-01T05:42:03;9.60;99.90
44229;DHT22;29904;51.058;5.378;2023-04-01T05:44:30;9.60;99.90
44229;DHT22;29904;51.058;5.378;2023-04-01T05:46:56;9.60;99.90
44229;DHT22;29904;51.058;5.378;2023-04-01T05:49:22;9.60;99.90
44229;DHT22;29904;51.058;5.378;2023-04-01T05:51:48;9.60;99.90
44229;DHT22;29904;51.058;5.378;2023-04-01T05:54:13;9.60;99.90
44229;DHT22;29904;51.058;5.378;2023-04-01T05:56:41;9.60;99.90
44229;DHT22;29904;51.058;5.378;2023-04-01T05:59:08;9.60;99.90
44229;DHT22;29904;51.058;5.378;2023-04-01T06:01:35;9.60;99.90
44229;DHT22;29904;51.058;5.378;2023-04-01T06:04:01;9.60;99.90
44229;DHT22;29904;51.058;5.378;2023-04-01T06:06:29;9.50;99.90
44229;DHT22;29904;51.058;5.378;2023-04-01T06:08:57;9.60;99.90
44229;DHT22;29904;51.058;5.378;2023-04-01T06:22:27;9.60;99.90
44229;DHT22;29904;51.058;5.378;2023-04-01T06:28:08;9.60;99.90
44229;DHT22;29904;51.058;5.378;2023-04-01T06:51:06;9.60;99.90
44229;DHT22;29904;51.058;5.378;2023-04-01T06:56:17;9.60;99.90
44229;DHT22;29904;51.058;5.378;2023-04-01T06:58:48;9.60;99.90
44229;DHT22;29904;51.058;5.378;2023-04-01T07:01:24;9.60;99.90
44229;DHT22;29904;51.058;5.378;2023-04-01T07:06:27;9.70;99.90
44229;DHT22;29904;51.058;5.378;2023-04-01T07:08:55;9.70;99.90
44229;DHT22;29904;51.058;5.378;2023-04-01T07:11:31;9.60;99.90
44229;DHT22;29904;51.058;5.378;2023-04-01T07:14:02;9.70;99.90
44229;DHT22;29904;51.058;5.378;2023-04-01T07:19:12;9.60;99.90
44229;DHT22;29904;51.058;5.378;2023-04-01T07:21:51;9.60;99.90
44229;DHT22;29904;51.058;5.378;2023-04-01T07:26:57;9.60;99.90
44229;DHT22;29904;51.058;5.378;2023-04-01T07:29:25;9.60;99.90
44229;DHT22;29904;51.058;5.378;2023-04-01T07:34:51;9.60;99.90
44229;DHT22;29904;51.058;5.378;2023-04-01T07:37:28;9.60;99.90
44229;DHT22;29904;51.058;5.378;2023-04-01T07:40:58;9.70;99.90
44229;DHT22;29904;51.058;5.378;2023-04-01T07:43:13;9.70;99.90
44229;DHT22;29904;51.058;5.378;2023-04-01T07:50:55;9.80;99.90
44229;DHT22;29904;51.058;5.378;2023-04-01T08:04:31;9.80;99.90
44229;DHT22;29904;51.058;5.378;2023-04-01T08:07:21;9.80;99.90
44229;DHT22;29904;51.058;5.378;2023-04-01T08:09:59;9.80;99.90
44229;DHT22;29904;51.058;5.378;2023-04-01T08:15:23;10.00;99.90
44229;DHT22;29904;51.058;5.378;2023-04-01T08:18:14;10.10;99.90
44229;DHT22;29904;51.058;5.378;2023-04-01T08:26:07;10.00;99.90
44229;DHT22;29904;51.058;5.378;2023-04-01T08:28:50;10.00;99.90
44229;DHT22;29904;51.058;5.378;2023-04-01T08:33:55;10.00;99.90
44229;DHT22;29904;51.058;5.378;2023-04-01T08:36:50;10.00;99.90
44229;DHT22;29904;51.058;5.378;2023-04-01T08:39:48;10.00;99.90
44229;DHT22;29904;51.058;5.378;2023-04-01T08:42:45;10.00;99.90
44229;DHT22;29904;51.058;5.378;2023-04-01T08:45:38;10.00;99.90
44229;DHT22;29904;51.058;5.378;2023-04-01T09:02:38;10.00;99.90
44229;DHT22;29904;51.058;5.378;2023-04-01T09:19:54;10.10;99.90
44229;DHT22;29904;51.058;5.378;2023-04-01T09:23:04;10.10;99.90
44229;DHT22;29904;51.058;5.378;2023-04-01T09:29:02;10.30;99.90
44229;DHT22;29904;51.058;5.378;2023-04-01T10:27:26;10.40;99.90
44229;DHT22;29904;51.058;5.378;2023-04-01T10:56:10;11.10;99.90
44229;DHT22;29904;51.058;5.378;2023-04-01T11:01:39;11.20;99.90
44229;DHT22;29904;51.058;5.378;2023-04-01T11:24:05;11.20;99.90
44229;DHT22;29904;51.058;5.378;2023-04-01T11:26:42;11.30;99.90
44229;DHT22;29904;51.058;5.378;2023-04-01T11:29:41;11.40;99.90
44229;DHT22;29904;51.058;5.378;2023-04-01T11:32:59;11.40;99.90
44229;DHT22;29904;51.058;5.378;2023-04-01T11:51:40;11.30;99.90
44229;DHT22;29904;51.058;5.378;2023-04-01T11:57:19;11.30;99.90
44229;DHT22;29904;51.058;5.378;2023-04-01T12:06:16;11.20;99.90
44229;DHT22;29904;51.058;5.378;2023-04-01T12:12:20;11.30;99.90
44229;DHT22;29904;51.058;5.378;2023-04-01T12:15:05;11.30;99.90
44229;DHT22;29904;51.058;5.378;2023-04-01T12:17:47;11.20;99.90
44229;DHT22;29904;51.058;5.378;2023-04-01T12:28:41;11.00;99.90
44229;DHT22;29904;51.058;5.378;2023-04-01T12:31:31;11.00;99.90
44229;DHT22;29904;51.058;5.378;2023-04-01T12:34:03;10.90;99.90
44229;DHT22;29904;51.058;5.378;2023-04-01T12:45:34;11.00;99.90
44229;DHT22;29904;51.058;5.378;2023-04-01T12:59:41;11.10;99.90
44229;DHT22;29904;51.058;5.378;2023-04-01T13:16:05;11.00;99.90
44229;DHT22;29904;51.058;5.378;2023-04-01T13:21:53;10.90;99.90
44229;DHT22;29904;51.058;5.378;2023-04-01T13:38:48;11.50;99.90
44229;DHT22;29904;51.058;5.378;2023-04-01T14:06:34;11.20;99.90
44229;DHT22;29904;51.058;5.378;2023-04-01T14:09:35;11.10;99.90
44229;DHT22;29904;51.058;5.378;2023-04-01T14:26:07;10.80;99.90
44229;DHT22;29904;51.058;5.378;2023-04-01T14:31:58;11.00;99.90
44229;DHT22;29904;51.058;5.378;2023-04-01T14:34:39;11.00;99.90
44229;DHT22;29904;51.058;5.378;2023-04-01T14:40:33;10.90;99.90
44229;DHT22;29904;51.058;5.378;2023-04-01T14:51:34;11.00;99.90
44229;DHT22;29904;51.058;5.378;2023-04-01T14:54:32;11.00;99.90
44229;DHT22;29904;51.058;5.378;2023-04-01T14:57:15;11.00;99.90
44229;DHT22;29904;51.058;5.378;2023-04-01T15:00:13;11.00;99.90
44229;DHT22;29904;51.058;5.378;2023-04-01T15:03:02;11.20;99.90
44229;DHT22;29904;51.058;5.378;2023-04-01T15:16:39;10.90;99.90
44229;DHT22;29904;51.058;5.378;2023-04-01T15:19:30;10.80;99.90
44229;DHT22;29904;51.058;5.378;2023-04-01T15:22:37;10.80;99.90
44229;DHT22;29904;51.058;5.378;2023-04-01T15:31:15;10.80;99.90
44229;DHT22;29904;51.058;5.378;2023-04-01T15:51:08;10.50;99.90
44229;DHT22;29904;51.058;5.378;2023-04-01T15:56:26;10.50;99.90
44229;DHT22;29904;51.058;5.378;2023-04-01T16:04:50;10.40;99.90
44229;DHT22;29904;51.058;5.378;2023-04-01T16:07:42;10.40;99.90
44229;DHT22;29904;51.058;5.378;2023-04-01T16:18:59;10.40;99.90
44229;DHT22;29904;51.058;5.378;2023-04-01T16:30:26;10.40;99.90
44229;DHT22;29904;51.058;5.378;2023-04-01T16:36:09;10.30;99.90
44229;DHT22;29904;51.058;5.378;2023-04-01T16:38:41;10.30;99.90
44229;DHT22;29904;51.058;5.378;2023-04-01T16:41:24;10.30;99.90
44229;DHT22;29904;51.058;5.378;2023-04-01T16:43:58;10.30;99.90
44229;DHT22;29904;51.058;5.378;2023-04-01T16:46:52;10.30;99.90
44229;DHT22;29904;51.058;5.378;2023-04-01T16:55:20;10.30;99.90
44229;DHT22;29904;51.058;5.378;2023-04-01T16:57:57;10.20;99.90
44229;DHT22;29904;51.058;5.378;2023-04-01T17:00:30;10.20;99.90
44229;DHT22;29904;51.058;5.378;2023-04-01T17:03:12;10.10;99.90
44229;DHT22;29904;51.058;5.378;2023-04-01T17:19:49;9.90;99.90
44229;DHT22;29904;51.058;5.378;2023-04-01T17:22:37;9.80;99.90
44229;DHT22;29904;51.058;5.378;2023-04-01T17:30:48;9.70;99.90
44229;DHT22;29904;51.058;5.378;2023-04-01T17:33:48;9.70;99.90
44229;DHT22;29904;51.058;5.378;2023-04-01T17:39:12;9.70;99.90
44229;DHT22;29904;51.058;5.378;2023-04-01T17:47:25;9.70;99.90
44229;DHT22;29904;51.058;5.378;2023-04-01T17:50:13;9.70;99.90
44229;DHT22;29904;51.058;5.378;2023-04-01T17:57:56;9.70;99.90
44229;DHT22;29904;51.058;5.378;2023-04-01T18:00:39;9.70;99.90
44229;DHT22;29904;51.058;5.378;2023-04-01T18:06:35;9.70;99.90
44229;DHT22;29904;51.058;5.378;2023-04-01T18:17:27;9.60;99.90
44229;DHT22;29904;51.058;5.378;2023-04-01T18:20:36;9.60;99.90
44229;DHT22;29904;51.058;5.378;2023-04-01T18:23:38;9.60;99.90
44229;DHT22;29904;51.058;5.378;2023-04-01T18:26:13;9.50;99.90
44229;DHT22;29904;51.058;5.378;2023-04-01T18:28:52;9.50;99.90
44229;DHT22;29904;51.058;5.378;2023-04-01T18:31:24;9.60;99.90
44229;DHT22;29904;51.058;5.378;2023-04-01T18:34:02;9.60;99.90
44229;DHT22;29904;51.058;5.378;2023-04-01T18:41:49;9.60;99.90
44229;DHT22;29904;51.058;5.378;2023-04-01T18:47:05;9.60;99.90
44229;DHT22;29904;51.058;5.378;2023-04-01T18:49:59;9.60;99.90
44229;DHT22;29904;51.058;5.378;2023-04-01T18:52:39;9.60;99.90
44229;DHT22;29904;51.058;5.378;2023-04-01T18:57:51;9.60;99.90
44229;DHT22;29904;51.058;5.378;2023-04-01T19:05:31;9.60;99.90
44229;DHT22;29904;51.058;5.378;2023-04-01T19:14:00;9.70;99.90
44229;DHT22;29904;51.058;5.378;2023-04-01T19:16:43;9.70;99.90
44229;DHT22;29904;51.058;5.378;2023-04-01T19:36:16;9.80;99.90
44229;DHT22;29904;51.058;5.378;2023-04-01T19:38:39;9.80;99.90
44229;DHT22;29904;51.058;5.378;2023-04-01T19:41:51;9.80;99.90
44229;DHT22;29904;51.058;5.378;2023-04-01T19:44:33;9.80;99.90
44229;DHT22;29904;51.058;5.378;2023-04-01T19:47:24;9.80;99.90
44229;DHT22;29904;51.058;5.378;2023-04-01T19:52:42;9.80;99.90
44229;DHT22;29904;51.058;5.378;2023-04-01T19:55:25;9.90;99.90
44229;DHT22;29904;51.058;5.378;2023-04-01T20:00:43;10.00;99.90
44229;DHT22;29904;51.058;5.378;2023-04-01T20:06:20;10.00;99.90
44229;DHT22;29904;51.058;5.378;2023-04-01T20:12:11;10.00;99.90
44229;DHT22;29904;51.058;5.378;2023-04-01T20:14:50;10.00;99.90
44229;DHT22;29904;51.058;5.378;2023-04-01T20:17:20;10.00;99.90
44229;DHT22;29904;51.058;5.378;2023-04-01T20:28:14;10.00;99.90
44229;DHT22;29904;51.058;5.378;2023-04-01T20:36:39;10.00;99.90
44229;DHT22;29904;51.058;5.378;2023-04-01T20:45:17;10.00;99.90
44229;DHT22;29904;51.058;5.378;2023-04-01T20:48:36;10.00;99.90
44229;DHT22;29904;51.058;5.378;2023-04-01T20:51:14;10.00;99.90
44229;DHT22;29904;51.058;5.378;2023-04-01T21:05:42;9.80;99.90
44229;DHT22;29904;51.058;5.378;2023-04-01T21:07:58;9.80;99.90
44229;DHT22;29904;51.058;5.378;2023-04-01T21:13:33;9.70;99.90
44229;DHT22;29904;51.058;5.378;2023-04-01T21:37:45;9.60;99.90
44229;DHT22;29904;51.058;5.378;2023-04-01T21:43:35;9.70;99.90
44229;DHT22;29904;51.058;5.378;2023-04-01T22:00:18;9.50;99.90
44229;DHT22;29904;51.058;5.378;2023-04-01T22:14:21;9.40;99.90
44229;DHT22;29904;51.058;5.378;2023-04-01T22:16:58;9.40;99.90
44229;DHT22;29904;51.058;5.378;2023-04-01T22:19:40;9.30;99.90
44229;DHT22;29904;51.058;5.378;2023-04-01T22:22:28;9.20;99.90
44229;DHT22;29904;51.058;5.378;2023-04-01T22:32:49;9.00;99.90
44229;DHT22;29904;51.058;5.378;2023-04-01T22:35:29;8.90;99.90
44229;DHT22;29904;51.058;5.378;2023-04-01T22:43:10;8.80;99.90
44229;DHT22;29904;51.058;5.378;2023-04-01T22:45:48;8.80;99.90
44229;DHT22;29904;51.058;5.378;2023-04-01T22:54:07;8.90;99.90
44229;DHT22;29904;51.058;5.378;2023-04-01T22:56:45;8.90;99.90
44229;DHT22;29904;51.058;5.378;2023-04-01T23:01:56;8.80;99.90
44229;DHT22;29904;51.058;5.378;2023-04-01T23:04:27;8.80;99.90
44229;DHT22;29904;51.058;5.378;2023-04-01T23:06:57;8.80;99.90
44229;DHT22;29904;51.058;5.378;2023-04-01T23:09:33;8.70;99.90
44229;DHT22;29904;51.058;5.378;2023-04-01T23:12:08;8.70;99.90
44229;DHT22;29904;51.058;5.378;2023-04-01T23:14:46;8.80;99.90
44229;DHT22;29904;51.058;5.378;2023-04-01T23:20:11;8.60;99.90
44229;DHT22;29904;51.058;5.378;2023-04-01T23:30:53;8.70;99.90
44229;DHT22;29904;51.058;5.378;2023-04-01T23:38:32;8.60;99.90
44229;DHT22;29904;51.058;5.378;2023-04-01T23:41:02;8.50;99.90
44229;DHT22;29904;51.058;5.378;2023-04-01T23:43:31;8.50;99.90
44229;DHT22;29904;51.058;5.378;2023-04-01T23:46:00;8.40;99.90
44229;DHT22;29904;51.058;5.378;2023-04-01T23:48:35;8.40;99.90
44229;DHT22;29904;51.058;5.378;2023-04-01T23:51:02;8.30;99.90
44229;DHT22;29904;51.058;5.378;2023-04-01T23:53:32;8.30;99.90
44229;DHT22;29904;51.058;5.378;2023-04-01T23:56:04;8.20;99.90
44229;DHT22;29904;51.058;5.378;2023-04-01T23:58:46;8.20;99.90
